Time;durP1;ratioP1;P1;durP2;ratioP2;P2;SDS_P1;SDS_P2;PMS_P1;PMS_P2;Temp;Humidity;BMP_temperature;BMP_pressure;BME280_temperature;BME280_humidity;BME280_pressure;Samples;Min_cycle;Max_cycle;Signal;HPM_P1;HPM_P2
2021/03/22 05:02:15;;;;;;;0.35;0.17;;;;;;;0.80;92.53;93453.78;6166802;23;19974;-75
2021/03/22 05:04:40;;;;;;;0.10;0.10;;;;;;;0.72;92.14;93448.63;6177910;23;20017;-74
2021/03/22 05:07:06;;;;;;;0.10;0.10;;;;;;;0.86;92.56;93451.44;6154123;23;20071;-75
2021/03/22 05:09:31;;;;;;;0.10;0.10;;;;;;;0.92;92.31;93447.47;6153571;23;20013;-75
2021/03/22 05:11:57;;;;;;;0.20;0.20;;;;;;;0.95;92.09;93453.06;6177973;23;20005;-75
2021/03/22 05:14:22;;;;;;;0.30;0.30;;;;;;;0.92;92.35;93447.47;6179006;23;20005;-75
2021/03/22 05:16:48;;;;;;;0.30;0.30;;;;;;;1.27;91.84;93455.00;6177297;23;20009;-75
2021/03/22 05:19:13;;;;;;;0.30;0.30;;;;;;;0.90;91.82;93460.34;6154223;23;20493;-75
2021/03/22 05:21:38;;;;;;;0.30;0.30;;;;;;;0.88;92.18;93458.91;6176999;23;20059;-76
2021/03/22 05:24:04;;;;;;;0.52;0.30;;;;;;;0.96;92.73;93475.03;6178678;23;20009;-76
2021/03/22 05:26:30;;;;;;;0.50;0.50;;;;;;;0.77;92.65;93461.72;6201450;23;20421;-75
2021/03/22 05:28:55;;;;;;;0.65;0.40;;;;;;;0.66;93.42;93461.94;6178720;23;20005;-76
2021/03/22 05:31:20;;;;;;;0.30;0.30;;;;;;;1.03;92.82;93467.59;6202542;23;20332;-75
2021/03/22 05:33:46;;;;;;;0.85;0.60;;;;;;;1.37;90.80;93465.06;6177940;23;20001;-75
2021/03/22 05:36:11;;;;;;;0.60;0.60;;;;;;;1.67;89.97;93469.63;6178677;23;20016;-75
2021/03/22 05:38:38;;;;;;;1.00;0.80;;;;;;;1.88;89.16;93464.13;6177323;23;20009;-75
2021/03/22 05:41:08;;;;;;;0.55;0.40;;;;;;;1.21;90.93;93457.34;6203997;23;20051;-75
2021/03/22 05:43:49;;;;;;;0.40;0.40;;;;;;;1.07;90.68;93458.69;6163419;23;20033;-75
2021/03/22 05:46:32;;;;;;;0.65;0.52;;;;;;;1.32;90.29;93450.22;6172932;23;20014;-75
2021/03/22 05:49:03;;;;;;;0.98;0.68;;;;;;;1.22;90.43;93454.63;6173693;23;20132;-75
2021/03/22 05:51:38;;;;;;;3.60;0.55;;;;;;;1.92;89.09;93465.44;6146833;23;20006;-75
2021/03/22 05:54:23;;;;;;;0.45;0.40;;;;;;;1.87;87.60;93467.63;6149332;23;20141;-75
2021/03/22 05:57:18;;;;;;;0.70;0.47;;;;;;;1.77;87.94;93459.31;6172643;23;20017;-75
2021/03/22 05:59:47;;;;;;;0.15;0.15;;;;;;;1.73;88.80;93465.69;6172613;23;20094;-75
2021/03/22 06:02:23;;;;;;;1.10;0.20;;;;;;;1.72;88.46;93462.34;6172738;23;20375;-75
2021/03/22 06:04:52;;;;;;;0.20;0.20;;;;;;;1.59;88.80;93450.03;6122859;23;20451;-75
2021/03/22 06:07:20;;;;;;;1.02;0.50;;;;;;;1.69;88.87;93457.56;6148862;23;20020;-74
2021/03/22 06:09:57;;;;;;;0.85;0.35;;;;;;;1.93;86.95;93455.06;6148026;23;20067;-75
2021/03/22 06:12:29;;;;;;;0.50;0.30;;;;;;;1.04;89.85;93449.63;6147664;23;20467;-75
2021/03/22 06:15:04;;;;;;;0.60;0.30;;;;;;;1.32;90.17;93457.88;6148796;23;20455;-75
2021/03/22 06:17:38;;;;;;;0.47;0.40;;;;;;;1.56;87.28;93460.53;6147110;23;20016;-76
2021/03/22 06:20:04;;;;;;;1.20;0.20;;;;;;;1.58;87.79;93466.28;6148716;23;20012;-76
2021/03/22 06:22:31;;;;;;;0.43;0.30;;;;;;;1.62;89.16;93465.97;6146937;23;20080;-75
2021/03/22 06:24:58;;;;;;;0.60;0.40;;;;;;;2.43;85.99;93462.63;6148836;23;20005;-74
2021/03/22 06:27:24;;;;;;;1.30;0.60;;;;;;;2.82;84.21;93452.56;6123491;23;20017;-74
2021/03/22 06:29:51;;;;;;;0.85;0.70;;;;;;;2.17;86.00;93472.19;6147338;23;20444;-73
2021/03/22 06:32:20;;;;;;;0.68;0.50;;;;;;;2.28;85.77;93473.63;6123926;23;20017;-73
2021/03/22 06:35:06;;;;;;;0.20;0.20;;;;;;;2.16;86.85;93475.69;6122619;23;20100;-73
2021/03/22 06:37:35;;;;;;;0.38;0.35;;;;;;;2.18;85.53;93475.53;6147899;23;20020;-73
2021/03/22 06:40:08;;;;;;;0.70;0.50;;;;;;;2.16;85.03;93479.97;6147028;23;20009;-73
2021/03/22 06:42:34;;;;;;;0.38;0.30;;;;;;;2.34;85.37;93475.56;6172251;23;20060;-73
2021/03/22 06:44:59;;;;;;;0.70;0.60;;;;;;;3.03;82.81;93470.75;6148238;23;20402;-73
2021/03/22 06:47:29;;;;;;;0.38;0.38;;;;;;;3.32;81.76;93480.44;6171521;23;20431;-74
2021/03/22 06:50:31;;;;;;;0.52;0.38;;;;;;;3.27;81.61;93461.44;6172555;23;20006;-74
2021/03/22 06:52:58;;;;;;;0.28;0.28;;;;;;;3.55;80.59;93463.41;6167224;23;20088;-74
2021/03/22 06:55:36;;;;;;;0.47;0.20;;;;;;;3.42;80.79;93470.00;6147333;23;20129;-74
2021/03/22 06:58:02;;;;;;;0.50;0.40;;;;;;;3.22;81.93;93472.13;6172882;23;20012;-74
2021/03/22 07:00:29;;;;;;;0.32;0.22;;;;;;;2.74;83.34;93467.91;6170584;23;20006;-73
2021/03/22 07:02:59;;;;;;;0.10;0.10;;;;;;;2.98;81.91;93467.09;6172006;23;20320;-73
2021/03/22 07:05:24;;;;;;;0.55;0.30;;;;;;;2.96;82.23;93461.31;6145542;23;20006;-73
2021/03/22 07:08:07;;;;;;;0.82;0.20;;;;;;;2.39;84.26;93461.34;6148406;23;20012;-73
2021/03/22 07:10:43;;;;;;;0.57;0.40;;;;;;;2.08;85.32;93458.59;6145932;23;20359;-74
2021/03/22 07:13:16;;;;;;;0.50;0.50;;;;;;;2.62;84.03;93464.88;6147299;23;19997;-73
2021/03/22 07:15:42;;;;;;;0.30;0.30;;;;;;;3.01;82.94;93464.19;6171353;23;20033;-73
2021/03/22 07:18:32;;;;;;;1.10;1.00;;;;;;;3.21;81.23;93459.53;6145265;23;20005;-73
2021/03/22 07:20:57;;;;;;;0.60;0.60;;;;;;;3.16;83.08;93465.94;6146305;23;20021;-74
2021/03/22 07:23:29;;;;;;;1.05;0.90;;;;;;;3.94;80.17;93460.06;6148237;23;20386;-74
2021/03/22 07:25:56;;;;;;;0.93;0.77;;;;;;;3.77;80.29;93466.22;6169573;23;20030;-74
2021/03/22 07:28:28;;;;;;;1.27;0.50;;;;;;;4.35;79.21;93470.84;6144985;23;20583;-74
2021/03/22 07:31:00;;;;;;;0.98;0.60;;;;;;;3.70;80.53;93472.00;6146363;23;20391;-74
2021/03/22 07:33:50;;;;;;;2.70;1.92;;;;;;;3.86;79.79;93472.88;6146869;23;20539;-75
2021/03/22 07:36:23;;;;;;;0.90;0.85;;;;;;;3.78;78.61;93470.38;6147894;23;20036;-74
2021/03/22 07:39:10;;;;;;;0.95;0.95;;;;;;;3.68;79.84;93475.69;6170469;23;20013;-74
2021/03/22 07:41:50;;;;;;;0.60;0.60;;;;;;;3.17;81.58;93488.00;6147298;23;20462;-75
2021/03/22 07:44:28;;;;;;;1.55;1.25;;;;;;;3.10;82.81;93487.03;6146887;23;20010;-76
2021/03/22 07:46:57;;;;;;;1.25;1.15;;;;;;;3.02;82.42;93479.38;6147806;23;20025;-75
2021/03/22 07:49:33;;;;;;;1.15;0.88;;;;;;;3.05;83.38;93479.03;6172886;23;20080;-75
2021/03/22 07:52:20;;;;;;;1.20;1.05;;;;;;;2.82;83.83;93487.56;6149175;23;20017;-75
2021/03/22 07:54:54;;;;;;;1.10;0.85;;;;;;;2.48;85.09;93487.69;6149347;23;20374;-76
2021/03/22 07:57:38;;;;;;;1.10;1.00;;;;;;;2.42;85.00;93490.88;6145532;23;20010;-75
2021/03/22 08:00:09;;;;;;;0.80;0.73;;;;;;;2.63;83.79;93494.56;6170794;23;20435;-76
2021/03/22 08:02:44;;;;;;;0.57;0.52;;;;;;;2.83;83.06;93484.81;6148403;23;20009;-76
2021/03/22 08:05:19;;;;;;;1.33;0.50;;;;;;;2.38;84.51;93487.03;6146579;23;20006;-76
2021/03/22 08:08:09;;;;;;;0.55;0.43;;;;;;;2.57;84.81;93497.75;6148381;23;20006;-76
2021/03/22 08:10:37;;;;;;;;;;;;;;;3.14;82.33;93497.75;6122879;23;20025;-77
2021/03/22 08:13:24;;;;;;;0.68;0.60;;;;;;;3.37;80.33;93496.06;6147823;23;19943;-76
2021/03/22 08:16:10;;;;;;;0.65;0.57;;;;;;;3.76;79.58;93491.00;6149509;23;20009;-76
2021/03/22 08:18:51;;;;;;;1.20;0.98;;;;;;;4.07;78.25;93488.47;6148354;23;20451;-76
2021/03/22 08:21:26;;;;;;;0.80;0.75;;;;;;;3.32;79.38;93483.00;6148823;23;20002;-76
2021/03/22 08:23:58;;;;;;;1.02;0.80;;;;;;;2.47;83.12;93488.66;6122099;23;20431;-77
2021/03/22 08:26:31;;;;;;;1.42;1.20;;;;;;;2.96;83.50;93500.47;6146629;23;20009;-77
2021/03/22 08:29:11;;;;;;;1.27;1.17;;;;;;;3.85;80.17;93497.72;6123289;23;20008;-78
2021/03/22 08:31:48;;;;;;;1.55;1.38;;;;;;;3.53;80.54;93495.25;6145472;23;20013;-78
2021/03/22 08:34:25;;;;;;;4.75;1.40;;;;;;;3.94;80.41;93491.59;6147752;23;20009;-76
2021/03/22 08:37:06;;;;;;;4.32;1.48;;;;;;;3.11;82.00;93482.72;6122515;23;20009;-77
2021/03/22 08:39:35;;;;;;;1.88;1.52;;;;;;;3.74;80.75;93482.69;6121557;23;20009;-77
2021/03/22 08:42:19;;;;;;;1.45;1.08;;;;;;;2.84;82.52;93485.63;6147977;23;20719;-77
2021/03/22 08:44:51;;;;;;;1.38;0.75;;;;;;;2.93;85.09;93484.66;6148273;23;20363;-79
2021/03/22 08:47:17;;;;;;;0.65;0.43;;;;;;;4.07;79.91;93473.91;6171886;23;20013;-76
2021/03/22 08:49:53;;;;;;;2.08;0.50;;;;;;;4.61;77.77;93479.81;6147314;23;20525;-76
2021/03/22 08:52:27;;;;;;;0.30;0.30;;;;;;;3.07;80.19;93478.88;6171042;23;20032;-76
2021/03/22 08:55:18;;;;;;;0.60;0.30;;;;;;;3.42;81.81;93477.69;6122989;23;20014;-78
2021/03/22 08:57:58;;;;;;;0.52;0.20;;;;;;;2.60;84.75;93482.09;6144153;23;20009;-78
2021/03/22 09:00:27;;;;;;;0.75;0.40;;;;;;;2.55;84.33;93478.44;6145368;23;20093;-77
2021/03/22 09:03:16;;;;;;;1.15;0.50;;;;;;;2.61;85.60;93493.13;6170119;23;20021;-77
2021/03/22 09:05:43;;;;;;;0.50;0.43;;;;;;;2.90;82.68;93482.41;6153825;23;20009;-75
2021/03/22 09:08:17;;;;;;;0.88;0.85;;;;;;;2.62;83.91;93479.41;6145614;23;20005;-74
2021/03/22 09:10:43;;;;;;;1.20;1.10;;;;;;;2.65;83.43;93486.75;6144714;23;20138;-76
2021/03/22 09:13:37;;;;;;;1.90;1.50;;;;;;;2.57;84.21;93474.75;6146132;23;20630;-73
2021/03/22 09:16:21;;;;;;;1.33;1.23;;;;;;;2.37;83.93;93475.25;6147924;23;20002;-74
2021/03/22 09:19:12;;;;;;;0.93;0.77;;;;;;;2.39;84.91;93478.41;6146411;23;20012;-74
2021/03/22 09:21:41;;;;;;;0.57;0.57;;;;;;;2.71;82.69;93475.88;6146422;23;20092;-76
2021/03/22 09:24:37;;;;;;;0.90;0.80;;;;;;;3.04;83.35;93481.78;6145498;23;20009;-75
2021/03/22 09:27:24;;;;;;;1.70;1.60;;;;;;;2.91;82.65;93484.03;6144732;23;20041;-74
2021/03/22 09:29:54;;;;;;;2.78;2.55;;;;;;;3.62;80.96;93484.03;6140819;23;20599;-74
2021/03/22 09:32:29;;;;;;;3.08;2.80;;;;;;;3.66;80.29;93482.75;6143499;23;20013;-74
2021/03/22 09:34:58;;;;;;;3.83;3.53;;;;;;;3.71;81.11;93481.28;6145877;23;20040;-76
2021/03/22 09:37:53;;;;;;;4.47;4.05;;;;;;;3.58;80.33;93470.75;6169842;23;20005;-74
2021/03/22 09:40:19;;;;;;;5.35;4.85;;;;;;;4.65;75.88;93468.25;6166320;23;20006;-74
2021/03/22 09:43:05;;;;;;;4.50;4.10;;;;;;;3.75;79.98;93463.81;6147565;23;20009;-75
2021/03/22 09:45:56;;;;;;;4.15;3.75;;;;;;;4.66;76.17;93471.59;6168807;23;20024;-75
2021/03/22 09:48:36;;;;;;;1.40;1.30;;;;;;;3.35;78.72;93484.41;6166631;23;20815;-75
2021/03/22 09:51:02;;;;;;;1.08;1.00;;;;;;;4.47;76.85;93456.69;6145667;23;20080;-75
2021/03/22 09:53:50;;;;;;;0.68;0.50;;;;;;;4.09;76.42;93425.88;6146431;23;20377;-75
2021/03/22 09:56:37;;;;;;;0.60;0.50;;;;;;;4.33;74.75;93435.16;6167002;23;20006;-76
2021/03/22 09:59:25;;;;;;;1.10;0.82;;;;;;;5.76;72.37;93442.59;6120585;23;20016;-76
2021/03/22 10:01:53;;;;;;;0.80;0.60;;;;;;;5.85;66.65;93454.38;6168176;23;20020;-77
2021/03/22 10:04:34;;;;;;;0.73;0.57;;;;;;;6.19;66.91;93464.09;6146470;23;20093;-76
2021/03/22 10:07:12;;;;;;;0.60;0.60;;;;;;;5.64;68.37;93457.69;6169142;23;20036;-76
2021/03/22 10:09:53;;;;;;;1.10;0.90;;;;;;;4.23;71.78;93449.97;6147200;23;20060;-76
2021/03/22 10:12:20;;;;;;;0.45;0.30;;;;;;;5.91;68.78;93433.13;6167423;23;20009;-76
2021/03/22 10:14:50;;;;;;;0.32;0.22;;;;;;;5.70;69.72;93423.59;6144879;23;20329;-76
2021/03/22 10:17:27;;;;;;;0.65;0.30;;;;;;;5.20;69.47;93418.38;6120565;23;20434;-76
2021/03/22 10:19:56;;;;;;;0.65;0.43;;;;;;;4.50;70.80;93452.00;6119324;23;20478;-75
2021/03/22 10:22:24;;;;;;;2.08;1.98;;;;;;;5.57;68.59;93469.63;6145496;23;20071;-75
2021/03/22 10:25:23;;;;;;;0.32;0.30;;;;;;;4.97;69.26;93462.06;6145692;23;20080;-76
2021/03/22 10:27:49;;;;;;;0.10;0.10;;;;;;;5.26;71.71;93458.75;6129747;23;20005;-76
2021/03/22 10:30:20;;;;;;;0.22;0.13;;;;;;;5.84;66.74;93452.78;6144289;23;20006;-76
2021/03/22 10:32:50;;;;;;;0.38;0.20;;;;;;;6.15;64.99;93440.53;6142688;23;20411;-77
2021/03/22 10:35:20;;;;;;;0.30;0.30;;;;;;;6.85;64.15;93444.94;6170039;23;20020;-77
2021/03/22 10:37:50;;;;;;;0.10;0.10;;;;;;;7.92;61.68;93446.22;6120549;23;20363;-78
2021/03/22 10:40:26;;;;;;;0.22;0.22;;;;;;;8.07;62.74;93448.66;6145662;23;20009;-77
2021/03/22 10:42:53;;;;;;;0.50;0.38;;;;;;;8.33;62.99;93446.19;6145810;23;20006;-77
2021/03/22 10:45:40;;;;;;;0.60;0.60;;;;;;;7.79;62.91;93459.84;6144271;23;20045;-77
2021/03/22 10:48:25;;;;;;;0.63;0.63;;;;;;;7.14;64.20;93464.56;6121199;23;20005;-77
2021/03/22 10:51:14;;;;;;;0.82;0.40;;;;;;;6.92;64.57;93457.84;6119839;23;20017;-75
2021/03/22 10:54:01;;;;;;;0.65;0.50;;;;;;;6.80;65.17;93466.09;6144268;23;20085;-76
2021/03/22 10:56:32;;;;;;;2.45;0.60;;;;;;;6.69;66.06;93452.91;6120905;23;20442;-76
2021/03/22 10:59:11;;;;;;;2.38;0.50;;;;;;;6.48;65.47;93461.44;6143997;23;20092;-76
2021/03/22 11:01:37;;;;;;;0.65;0.50;;;;;;;6.13;67.13;93459.69;6118873;23;20028;-76
2021/03/22 11:04:04;;;;;;;1.13;1.08;;;;;;;5.93;68.08;93458.66;6115571;23;20096;-75
2021/03/22 11:06:33;;;;;;;1.88;1.77;;;;;;;5.82;69.86;93463.22;6142409;23;20014;-75
2021/03/22 11:09:00;;;;;;;3.03;2.83;;;;;;;5.51;70.95;93467.78;6144149;23;20467;-75
2021/03/22 11:11:28;;;;;;;4.65;4.30;;;;;;;5.40;71.69;93475.91;6143335;23;20025;-75
2021/03/22 11:13:55;;;;;;;7.40;6.80;;;;;;;4.89;74.52;93471.56;6144113;23;20005;-76
2021/03/22 11:16:27;;;;;;;6.40;5.90;;;;;;;5.11;74.51;93466.41;6118657;23;20021;-76
2021/03/22 11:18:53;;;;;;;5.97;5.47;;;;;;;4.91;76.08;93464.53;6167104;23;20387;-75
2021/03/22 11:21:20;;;;;;;4.38;4.07;;;;;;;4.52;77.54;93469.78;6143396;23;20407;-75
2021/03/22 11:23:46;;;;;;;7.20;5.90;;;;;;;4.41;76.96;93468.41;6145979;23;20479;-75
2021/03/22 11:26:26;;;;;;;5.85;5.35;;;;;;;4.28;78.09;93469.94;6146671;23;20005;-75
2021/03/22 11:29:20;;;;;;;5.25;4.75;;;;;;;4.40;77.88;93464.25;6146552;23;20012;-74
2021/03/22 11:31:47;;;;;;;7.65;6.93;;;;;;;4.24;78.14;93479.72;6170891;23;20013;-75
2021/03/22 11:34:27;;;;;;;4.93;4.45;;;;;;;4.11;78.84;93479.50;6144245;23;20814;-75
2021/03/22 11:37:37;;;;;;;6.00;5.45;;;;;;;4.08;78.85;93479.81;6145516;23;20008;-75
2021/03/22 11:40:15;;;;;;;5.22;4.82;;;;;;;3.84;79.86;93483.31;6146983;23;20474;-75
2021/03/22 11:42:58;;;;;;;7.00;6.40;;;;;;;3.60;80.00;93491.84;6171304;23;20032;-75
2021/03/22 11:45:52;;;;;;;4.68;4.22;;;;;;;3.36;81.08;93489.38;6147532;23;20076;-75
2021/03/22 11:48:38;;;;;;;5.43;4.93;;;;;;;3.28;80.83;93481.72;6139409;23;20432;-77
2021/03/22 11:51:08;;;;;;;6.47;5.72;;;;;;;3.21;81.50;93480.00;6146102;23;20466;-77
2021/03/22 11:53:53;;;;;;;5.97;5.47;;;;;;;3.18;81.65;93478.53;6147013;23;20096;-77
2021/03/22 11:56:24;;;;;;;6.32;5.82;;;;;;;3.47;80.79;93471.09;6167606;23;20040;-75
2021/03/22 11:58:49;;;;;;;5.30;4.82;;;;;;;3.43;80.28;93476.75;6139543;23;20018;-75
2021/03/22 12:01:21;;;;;;;4.38;3.97;;;;;;;2.79;82.21;93478.44;6144703;23;20341;-75
2021/03/22 12:03:47;;;;;;;5.68;5.20;;;;;;;3.42;80.93;93470.81;6147000;23;20005;-75
2021/03/22 12:06:22;;;;;;;5.70;5.30;;;;;;;4.03;77.93;93472.66;6145211;23;20009;-75
2021/03/22 12:08:52;;;;;;;5.38;4.88;;;;;;;4.42;75.81;93474.34;6169885;23;20012;-75
2021/03/22 12:11:19;;;;;;;4.63;4.22;;;;;;;4.73;75.23;93472.50;6145059;23;20002;-75
2021/03/22 12:13:49;;;;;;;4.88;4.47;;;;;;;4.67;74.52;93479.13;6121656;23;20440;-75
2021/03/22 12:16:28;;;;;;;3.75;3.45;;;;;;;4.33;73.70;93486.41;6144158;23;20012;-75
2021/03/22 12:18:55;;;;;;;3.53;3.22;;;;;;;3.77;76.55;93491.81;6145463;23;20295;-75
2021/03/22 12:21:21;;;;;;;3.10;2.90;;;;;;;4.30;74.50;93485.94;6120225;23;20466;-75
2021/03/22 12:23:46;;;;;;;3.17;2.97;;;;;;;4.04;75.41;93488.81;6121068;23;20005;-75
2021/03/22 12:26:19;;;;;;;1.08;0.80;;;;;;;3.23;74.41;93485.72;6145151;23;20009;-77
2021/03/22 12:28:54;;;;;;;0.45;0.35;;;;;;;3.04;73.64;93479.22;6144481;23;20005;-77
2021/03/22 12:31:54;;;;;;;0.10;0.10;;;;;;;2.41;76.49;93479.84;6146348;23;20037;-75
2021/03/22 12:34:24;;;;;;;0.20;0.10;;;;;;;2.78;76.25;93484.50;6131798;23;20018;-78
2021/03/22 12:36:50;;;;;;;0.10;0.10;;;;;;;2.17;77.40;93489.25;6145206;23;20002;-76
2021/03/22 12:39:22;;;;;;;0.10;0.10;;;;;;;2.17;76.78;93486.69;6169207;23;20009;-77
2021/03/22 12:41:51;;;;;;;0.10;0.10;;;;;;;1.83;78.05;93499.53;6142972;23;20009;-75
2021/03/22 12:44:16;;;;;;;0.10;0.10;;;;;;;1.83;77.58;93494.44;6120640;23;20375;-76
2021/03/22 12:46:42;;;;;;;0.05;0.05;;;;;;;1.98;78.22;93493.69;6143684;23;20013;-75
2021/03/22 12:49:11;;;;;;;0.10;0.10;;;;;;;2.02;77.66;93505.16;6170149;23;20009;-76
2021/03/22 12:51:39;;;;;;;0.40;0.20;;;;;;;2.76;76.86;93508.63;6142895;23;20013;-75
2021/03/22 12:54:05;;;;;;;0.20;0.20;;;;;;;3.31;76.16;93503.63;6144352;23;20075;-77
2021/03/22 12:56:30;;;;;;;1.50;1.40;;;;;;;3.56;77.54;93498.25;6144858;23;20017;-76
2021/03/22 12:58:56;;;;;;;2.10;1.90;;;;;;;3.49;78.31;93502.47;6144078;23;20009;-77
2021/03/22 13:01:23;;;;;;;2.10;1.90;;;;;;;3.73;77.62;93504.94;6118042;23;20060;-75
2021/03/22 13:03:49;;;;;;;1.60;1.50;;;;;;;3.63;78.66;93506.09;6118296;23;20010;-75
2021/03/22 13:06:14;;;;;;;2.13;2.03;;;;;;;3.94;77.26;93508.72;6144719;23;20072;-75
2021/03/22 13:08:39;;;;;;;1.75;1.65;;;;;;;3.92;75.65;93508.06;6144463;23;20061;-75
2021/03/22 13:11:08;;;;;;;1.75;1.65;;;;;;;3.82;77.11;93505.69;6143127;23;20006;-75
2021/03/22 13:13:33;;;;;;;1.70;1.33;;;;;;;4.24;76.17;93507.91;6142869;23;20056;-75
2021/03/22 13:15:59;;;;;;;1.55;1.45;;;;;;;3.98;75.18;93508.19;6119996;23;20009;-75
2021/03/22 13:18:30;;;;;;;1.75;1.30;;;;;;;4.39;73.86;93508.78;6120337;23;20024;-75
2021/03/22 13:21:03;;;;;;;1.48;1.38;;;;;;;4.47;74.17;93505.38;6142887;23;19998;-75
2021/03/22 13:23:29;;;;;;;1.63;1.52;;;;;;;4.69;73.53;93515.63;6144329;23;20025;-75
2021/03/22 13:25:55;;;;;;;1.73;1.55;;;;;;;4.24;73.24;93513.03;6119743;23;20006;-75
2021/03/22 13:28:39;;;;;;;1.58;1.48;;;;;;;3.71;76.51;93517.13;6144043;23;20009;-75
2021/03/22 13:31:06;;;;;;;1.73;1.27;;;;;;;4.40;74.38;93519.84;6149323;23;20014;-75
2021/03/22 13:33:33;;;;;;;1.10;1.00;;;;;;;4.49;73.40;93517.06;6119004;23;20071;-76
2021/03/22 13:36:01;;;;;;;1.35;1.25;;;;;;;4.95;72.66;93519.59;6120328;23;20460;-75
2021/03/22 13:38:28;;;;;;;1.10;0.93;;;;;;;4.30;74.35;93527.75;6168200;23;20001;-75
2021/03/22 13:40:54;;;;;;;2.08;1.50;;;;;;;4.12;75.91;93524.63;6143500;23;20041;-75
2021/03/22 13:43:21;;;;;;;2.40;2.17;;;;;;;4.35;78.41;93528.03;6144145;23;20051;-76
2021/03/22 13:45:47;;;;;;;3.03;2.83;;;;;;;3.72;79.68;93531.47;6144202;23;20017;-76
2021/03/22 13:48:12;;;;;;;3.88;3.58;;;;;;;3.85;80.30;93537.88;6144263;23;20013;-75
2021/03/22 13:50:41;;;;;;;3.08;2.88;;;;;;;3.70;80.54;93537.75;6145151;23;20010;-76
2021/03/22 13:53:07;;;;;;;1.52;1.40;;;;;;;3.55;80.70;93552.97;6144564;23;20013;-76
2021/03/22 13:55:33;;;;;;;1.08;1.00;;;;;;;2.99;81.90;93558.13;6143818;23;19997;-76
2021/03/22 13:57:58;;;;;;;0.70;0.70;;;;;;;2.76;83.41;93560.53;6144036;23;20021;-78
2021/03/22 14:00:24;;;;;;;1.73;1.60;;;;;;;2.63;83.65;93561.00;6119619;23;20017;-77
2021/03/22 14:02:49;;;;;;;2.25;0.85;;;;;;;2.50;84.24;93563.22;6143241;23;20025;-77
2021/03/22 14:05:20;;;;;;;0.63;0.63;;;;;;;2.94;82.96;93560.38;6169248;23;20025;-77
2021/03/22 14:07:46;;;;;;;1.15;1.05;;;;;;;2.86;83.11;93550.19;6168755;23;20005;-77
2021/03/22 14:10:12;;;;;;;1.08;0.77;;;;;;;2.42;84.41;93563.19;6144934;23;20016;-78
2021/03/22 14:12:37;;;;;;;0.98;0.88;;;;;;;2.53;84.76;93570.56;6143424;23;20012;-77
2021/03/22 14:15:06;;;;;;;0.50;0.50;;;;;;;2.66;84.56;93575.22;6143686;23;20415;-78
2021/03/22 14:17:32;;;;;;;0.80;0.80;;;;;;;3.12;82.63;93571.25;6168851;23;20421;-78
2021/03/22 14:19:58;;;;;;;0.60;0.60;;;;;;;3.19;82.46;93569.66;6169206;23;20545;-77
2021/03/22 14:22:23;;;;;;;0.77;0.63;;;;;;;3.38;81.30;93571.88;6142980;23;20001;-77
2021/03/22 14:24:49;;;;;;;0.50;0.50;;;;;;;3.08;82.18;93568.22;6144672;23;19997;-78
2021/03/22 14:27:15;;;;;;;0.38;0.38;;;;;;;3.14;82.09;93574.47;6118814;23;20461;-77
2021/03/22 14:29:40;;;;;;;0.57;0.52;;;;;;;2.83;82.40;93584.50;6143527;23;20005;-78
2021/03/22 14:32:06;;;;;;;0.38;0.38;;;;;;;2.60;83.82;93596.31;6143319;23;20005;-77
2021/03/22 14:34:31;;;;;;;0.43;0.43;;;;;;;2.73;83.86;93588.94;6143213;23;20088;-77
2021/03/22 14:37:00;;;;;;;0.88;0.80;;;;;;;2.72;83.33;93589.13;6119212;23;20005;-77
2021/03/22 14:39:26;;;;;;;2.22;2.03;;;;;;;2.59;83.90;93589.59;6144051;23;20014;-77
2021/03/22 14:41:51;;;;;;;2.92;1.50;;;;;;;2.44;84.41;93591.94;6143260;23;20115;-78
2021/03/22 14:44:17;;;;;;;2.60;2.40;;;;;;;2.59;84.79;93592.94;6143106;23;20447;-78
2021/03/22 14:46:42;;;;;;;2.17;2.08;;;;;;;2.80;83.48;93604.47;6143802;23;20035;-77
2021/03/22 14:49:08;;;;;;;3.10;2.88;;;;;;;2.91;83.69;93602.41;6144051;23;20380;-77
2021/03/22 14:51:33;;;;;;;1.50;1.35;;;;;;;2.50;82.99;93609.22;6142492;23;20005;-77
2021/03/22 14:53:58;;;;;;;2.17;2.00;;;;;;;2.98;83.12;93602.59;6143372;23;20017;-78
2021/03/22 14:56:24;;;;;;;2.20;2.00;;;;;;;3.04;82.55;93609.63;6118877;23;20013;-75
2021/03/22 14:58:52;;;;;;;5.90;4.68;;;;;;;2.81;83.34;93613.72;6144673;23;20396;-78
2021/03/22 15:01:18;;;;;;;4.45;4.05;;;;;;;3.07;82.74;93612.66;6167657;23;20020;-76
2021/03/22 15:03:43;;;;;;;4.35;3.95;;;;;;;2.61;84.28;93613.22;6143923;23;20089;-78
2021/03/22 15:06:09;;;;;;;5.45;5.00;;;;;;;3.01;83.74;93618.41;6119247;23;20009;-78
2021/03/22 15:08:34;;;;;;;5.18;4.78;;;;;;;3.02;83.75;93626.84;6144191;23;20009;-78
2021/03/22 15:11:00;;;;;;;5.50;4.50;;;;;;;2.36;85.08;93624.31;6143527;23;20005;-77
2021/03/22 15:13:25;;;;;;;4.80;4.40;;;;;;;2.49;85.49;93630.59;6118482;23;20013;-77
2021/03/22 15:15:51;;;;;;;5.65;5.18;;;;;;;2.59;85.34;93630.47;6143997;23;20010;-78
2021/03/22 15:18:19;;;;;;;4.15;3.85;;;;;;;2.55;84.90;93634.28;6142453;23;20005;-77
2021/03/22 15:20:45;;;;;;;4.22;3.83;;;;;;;2.17;85.59;93645.78;6141623;23;20420;-78
2021/03/22 15:23:20;;;;;;;5.93;5.32;;;;;;;2.29;85.07;93647.13;6143800;23;20005;-77
2021/03/22 15:25:46;;;;;;;6.18;5.15;;;;;;;1.95;86.23;93659.09;6118661;23;20001;-77
2021/03/22 15:28:17;;;;;;;6.57;6.07;;;;;;;2.09;85.89;93655.94;6143765;23;20092;-77
2021/03/22 15:30:43;;;;;;;5.80;5.03;;;;;;;2.04;86.02;93661.53;6142735;23;20009;-77
2021/03/22 15:33:10;;;;;;;5.40;4.97;;;;;;;2.21;85.46;93667.53;6119255;23;20079;-77
2021/03/22 15:35:35;;;;;;;6.47;5.88;;;;;;;2.21;85.16;93667.53;6142827;23;20009;-77
2021/03/22 15:38:01;;;;;;;5.53;5.03;;;;;;;2.03;86.27;93674.44;6144413;23;20016;-77
2021/03/22 15:40:26;;;;;;;5.65;5.10;;;;;;;1.96;86.96;93679.34;6143417;23;20455;-77
2021/03/22 15:42:54;;;;;;;8.30;6.55;;;;;;;1.77;87.19;93683.84;6143571;23;20089;-77
2021/03/22 15:45:27;;;;;;;7.68;6.97;;;;;;;1.75;88.16;93693.41;6144482;23;20107;-77
2021/03/22 15:47:53;;;;;;;8.63;7.72;;;;;;;1.71;87.63;93694.63;6118498;23;20005;-77
2021/03/22 15:50:18;;;;;;;7.70;5.68;;;;;;;1.79;87.47;93692.97;6127611;23;20096;-77
2021/03/22 15:52:45;;;;;;;6.60;5.80;;;;;;;1.53;88.03;93697.22;6166548;23;20009;-75
2021/03/22 15:55:24;;;;;;;5.82;5.32;;;;;;;1.69;87.81;93701.66;6142773;23;20081;-75
2021/03/22 15:57:50;;;;;;;5.97;5.38;;;;;;;1.62;88.06;93698.09;6117597;23;20009;-75
2021/03/22 16:00:17;;;;;;;5.72;5.13;;;;;;;1.66;87.85;93696.84;6116828;23;20582;-75
2021/03/22 16:02:43;;;;;;;5.72;5.22;;;;;;;1.65;87.78;93703.69;6118530;23;20024;-75
2021/03/22 16:05:09;;;;;;;6.38;4.78;;;;;;;1.26;89.36;93707.50;6141129;23;20009;-75
2021/03/22 16:07:34;;;;;;;6.50;4.07;;;;;;;1.36;89.06;93706.50;6168642;23;20005;-76
2021/03/22 16:10:00;;;;;;;8.20;7.45;;;;;;;1.49;88.27;93712.03;6168903;23;20419;-75
2021/03/22 16:12:25;;;;;;;6.53;5.97;;;;;;;1.41;88.45;93714.50;6143921;23;20052;-75
2021/03/22 16:14:51;;;;;;;5.47;4.93;;;;;;;1.43;88.47;93717.72;6120122;23;20010;-75
2021/03/22 16:17:19;;;;;;;6.25;5.75;;;;;;;1.21;89.09;93728.34;6144697;23;20416;-75
2021/03/22 16:19:45;;;;;;;5.70;5.20;;;;;;;1.30;88.78;93727.47;6145620;23;20490;-75
2021/03/22 16:22:10;;;;;;;6.55;6.00;;;;;;;1.45;88.43;93736.22;6119291;23;20013;-75
2021/03/22 16:24:36;;;;;;;5.35;4.85;;;;;;;1.20;88.76;93739.50;6121397;23;20010;-74
2021/03/22 16:27:01;;;;;;;5.65;5.15;;;;;;;1.24;89.42;93742.56;6146387;23;20005;-75
2021/03/22 16:29:27;;;;;;;6.22;5.70;;;;;;;1.06;89.80;93740.78;6120431;23;20105;-75
2021/03/22 16:31:52;;;;;;;5.35;4.88;;;;;;;0.99;89.56;93736.41;6144559;23;20451;-75
2021/03/22 16:34:18;;;;;;;4.45;3.45;;;;;;;0.83;90.38;93746.44;6145289;23;20077;-75
2021/03/22 16:36:43;;;;;;;4.35;3.95;;;;;;;1.11;89.79;93742.91;6143649;23;20056;-75
2021/03/22 16:39:09;;;;;;;6.00;5.47;;;;;;;0.86;89.61;93754.59;6145342;23;20013;-75
2021/03/22 16:41:34;;;;;;;6.60;6.00;;;;;;;0.78;90.04;93754.50;6120844;23;20009;-75
2021/03/22 16:44:00;;;;;;;8.18;7.50;;;;;;;0.83;89.61;93764.28;6169412;23;20641;-75
2021/03/22 16:46:25;;;;;;;5.20;4.70;;;;;;;0.96;89.77;93765.50;6145005;23;20379;-75
2021/03/22 16:48:51;;;;;;;6.05;4.50;;;;;;;0.91;90.11;93765.16;6145201;23;20024;-75
2021/03/22 16:51:16;;;;;;;7.72;5.35;;;;;;;0.92;89.58;93764.22;6145293;23;20450;-75
2021/03/22 16:53:42;;;;;;;7.90;7.07;;;;;;;0.95;89.64;93774.13;6145063;23;20388;-76
2021/03/22 16:56:08;;;;;;;8.30;6.95;;;;;;;0.95;89.62;93775.88;6170274;23;20028;-77
2021/03/22 16:58:34;;;;;;;7.15;6.35;;;;;;;0.80;89.68;93784.94;6145098;23;20009;-76
2021/03/22 17:01:00;;;;;;;9.45;8.45;;;;;;;0.96;89.59;93785.91;6144542;23;20454;-75
2021/03/22 17:03:26;;;;;;;6.18;5.57;;;;;;;0.87;89.68;93788.50;6144905;23;20006;-75